createdAt,value
2018-08-12T00:00:55.749Z,67.94
2018-08-12T00:03:25.000Z,69.32
2018-08-12T00:05:53.941Z,68.61
2018-08-12T00:08:22.843Z,68.48
2018-08-12T00:10:51.735Z,68.83
2018-08-12T00:13:20.637Z,68.58
2018-08-12T00:15:49.553Z,69.21
2018-08-12T00:18:18.501Z,69.66
2018-08-12T00:20:47.382Z,70.01
2018-08-12T00:23:16.269Z,69.13
2018-08-12T00:25:45.170Z,69.51
2018-08-12T00:28:14.095Z,69.44
2018-08-12T00:30:43.002Z,70.17
2018-08-12T00:33:13.015Z,69.76
2018-08-12T00:35:41.930Z,70.55
2018-08-12T00:38:10.814Z,69.95
2018-08-12T00:40:39.728Z,69.94
2018-08-12T00:43:08.625Z,70.57
2018-08-12T00:45:37.529Z,70.17
2018-08-12T00:48:06.464Z,69.97
2018-08-12T00:50:35.334Z,70.85
2018-08-12T00:53:04.227Z,70.32
2018-08-12T00:55:33.259Z,70.75
2018-08-12T00:58:02.179Z,70.76
2018-08-12T01:00:31.061Z,69.94
2018-08-12T01:03:00.030Z,70.17
2018-08-12T01:05:28.874Z,69.47
2018-08-12T01:07:57.905Z,70.53
2018-08-12T01:10:26.818Z,70.35
2018-08-12T01:12:55.727Z,70.27
2018-08-12T01:15:24.643Z,70.04
2018-08-12T01:17:53.601Z,70.01
2018-08-12T01:20:24.121Z,70.23
2018-08-12T01:22:53.002Z,70.56
2018-08-12T01:25:22.237Z,71.52
2018-08-12T01:27:52.186Z,70.68
2018-08-12T01:30:22.066Z,70.64
2018-08-12T01:32:50.944Z,70.11
2018-08-12T01:35:19.914Z,70.10
2018-08-12T01:37:49.451Z,70.82
2018-08-12T01:40:19.119Z,71.61
2018-08-12T01:42:48.059Z,70.82
2018-08-12T01:45:18.476Z,71.19
2018-08-12T01:47:47.413Z,72.02
2018-08-12T01:50:17.518Z,72.05
2018-08-12T01:52:46.568Z,71.41
2018-08-12T01:55:15.839Z,71.80
2018-08-12T01:57:44.739Z,72.03
2018-08-12T02:00:18.947Z,71.99
2018-08-12T02:02:48.318Z,71.68
2018-08-12T02:05:17.594Z,72.19
2018-08-12T02:07:46.532Z,72.34
2018-08-12T02:10:15.451Z,72.16
2018-08-12T02:12:44.369Z,72.97
2018-08-12T02:15:13.351Z,72.18
2018-08-12T02:17:42.590Z,72.50
2018-08-12T02:20:12.221Z,72.16
2018-08-12T02:22:41.556Z,72.27
2018-08-12T02:25:11.225Z,71.63
2018-08-12T02:27:40.187Z,71.79
2018-08-12T02:30:10.850Z,70.61
2018-08-12T02:32:39.972Z,71.15
2018-08-12T02:35:09.255Z,70.51
2018-08-12T02:37:38.172Z,71.53
2018-08-12T02:40:08.097Z,69.85
2018-08-12T02:42:36.953Z,69.88
2018-08-12T02:45:08.945Z,69.04
2018-08-12T02:47:37.837Z,68.55
2018-08-12T02:50:06.909Z,68.05
2018-08-12T02:52:36.401Z,68.12
2018-08-12T02:55:06.164Z,67.28
2018-08-12T02:57:35.057Z,66.64
2018-08-12T03:00:05.968Z,66.04
2018-08-12T03:02:34.848Z,66.47
2018-08-12T03:05:04.049Z,66.03
2018-08-12T03:07:33.072Z,65.98
2018-08-12T03:10:01.955Z,66.08
2018-08-12T03:12:30.844Z,65.60
2018-08-12T03:14:59.780Z,65.41
2018-08-12T03:17:28.678Z,65.79
2018-08-12T03:19:57.584Z,67.55
2018-08-12T03:22:26.627Z,67.24
2018-08-12T03:24:55.430Z,66.76
2018-08-12T03:27:24.330Z,67.03
2018-08-12T03:29:53.212Z,67.48
2018-08-12T03:32:22.107Z,65.83
2018-08-12T03:34:51.106Z,65.09
2018-08-12T03:37:20.039Z,65.30
2018-08-12T03:39:48.956Z,65.68
2018-08-12T03:42:17.854Z,65.29
2018-08-12T03:44:46.753Z,65.21
2018-08-12T03:47:15.651Z,65.78
2018-08-12T03:49:44.597Z,65.29
2018-08-12T03:52:13.470Z,65.76
2018-08-12T03:54:42.369Z,64.43
2018-08-12T03:57:11.270Z,64.99
2018-08-12T03:59:40.165Z,65.17
2018-08-12T04:02:09.086Z,65.22
2018-08-12T04:04:38.147Z,65.06
2018-08-12T04:07:07.112Z,65.52
2018-08-12T04:09:35.997Z,64.84
2018-08-12T04:12:04.923Z,65.94
2018-08-12T04:14:33.863Z,65.37
2018-08-12T04:17:02.781Z,64.87
2018-08-12T04:19:31.974Z,65.11
2018-08-12T04:22:01.263Z,64.67
2018-08-12T04:24:30.184Z,65.93
2018-08-12T04:26:59.135Z,66.23
2018-08-12T04:29:28.403Z,65.67
2018-08-12T04:31:57.702Z,66.03
2018-08-12T04:34:26.956Z,65.39
2018-08-12T04:36:56.049Z,64.82
2018-08-12T04:39:24.953Z,64.39
2018-08-12T04:41:53.855Z,65.83
2018-08-12T04:44:22.740Z,65.54
2018-08-12T04:46:51.692Z,65.59
2018-08-12T04:49:20.591Z,64.69
2018-08-12T04:51:49.469Z,64.72
2018-08-12T04:54:18.519Z,64.65
2018-08-12T04:56:47.428Z,64.29
2018-08-12T04:59:16.540Z,64.26
2018-08-12T05:01:45.552Z,63.85
2018-08-12T05:04:14.430Z,63.98
2018-08-12T05:06:43.384Z,64.98
2018-08-12T05:09:12.685Z,64.46
2018-08-12T05:11:41.579Z,64.51
2018-08-12T05:14:10.455Z,63.58
2018-08-12T05:16:39.360Z,64.93
2018-08-12T05:19:08.273Z,63.91
2018-08-12T05:21:37.196Z,63.69
2018-08-12T05:24:07.166Z,64.25
2018-08-12T05:26:36.131Z,64.17
2018-08-12T05:29:05.110Z,63.89
2018-08-12T05:31:34.063Z,62.97
2018-08-12T05:34:03.081Z,62.74
2018-08-12T05:36:33.030Z,63.84
2018-08-12T05:39:01.897Z,63.23
2018-08-12T05:41:30.794Z,63.22
2018-08-12T05:43:59.743Z,62.91
2018-08-12T05:46:28.616Z,62.72
2018-08-12T05:48:57.532Z,63.51
2018-08-12T05:51:27.475Z,62.64
2018-08-12T05:53:57.266Z,62.32
2018-08-12T05:56:26.197Z,62.59
2018-08-12T05:58:55.081Z,61.58
2018-08-12T06:01:24.117Z,61.96
2018-08-12T06:03:53.062Z,61.35
2018-08-12T06:06:21.946Z,60.38
2018-08-12T06:08:50.856Z,59.84
2018-08-12T06:11:19.979Z,59.60
2018-08-12T06:13:48.954Z,59.33
2018-08-12T06:16:17.949Z,59.15
2018-08-12T06:18:46.849Z,59.38
2018-08-12T06:21:15.756Z,59.25
2018-08-12T06:23:44.668Z,59.12
2018-08-12T06:26:13.522Z,58.75
2018-08-12T06:28:42.437Z,58.34
2018-08-12T06:31:11.345Z,58.27
2018-08-12T06:33:40.252Z,58.36
2018-08-12T06:36:09.185Z,58.19
2018-08-12T06:38:38.034Z,58.22
2018-08-12T06:41:06.979Z,58.60
2018-08-12T06:43:35.921Z,58.20
2018-08-12T06:46:04.804Z,58.11
2018-08-12T06:48:33.715Z,57.58
2018-08-12T06:51:02.656Z,57.90
2018-08-12T06:53:31.574Z,58.86
2018-08-12T06:56:00.475Z,58.54
2018-08-12T06:58:29.357Z,57.61
2018-08-12T07:00:59.322Z,57.33
2018-08-12T07:03:28.257Z,57.45
2018-08-12T07:05:57.133Z,57.58
2018-08-12T07:08:26.021Z,57.45
2018-08-12T07:10:54.973Z,56.92
2018-08-12T07:13:24.029Z,57.24
2018-08-12T07:15:52.909Z,56.94
2018-08-12T07:18:21.819Z,57.04
2018-08-12T07:20:50.705Z,55.73
2018-08-12T07:23:19.711Z,55.83
2018-08-12T07:25:48.617Z,56.95
2018-08-12T07:28:17.545Z,55.77
2018-08-12T07:30:46.493Z,56.24
2018-08-12T07:33:15.409Z,55.64
2018-08-12T07:35:44.300Z,55.33
2018-08-12T07:38:13.198Z,55.50
2018-08-12T07:40:42.128Z,55.64
2018-08-12T07:43:11.004Z,54.64
2018-08-12T07:45:39.906Z,54.96
2018-08-12T07:48:08.804Z,55.42
2018-08-12T07:50:37.697Z,55.55
2018-08-12T07:53:06.645Z,55.16
2018-08-12T07:55:35.619Z,54.56
2018-08-12T07:58:04.415Z,54.46
2018-08-12T08:00:33.299Z,54.56
2018-08-12T08:03:02.208Z,54.56
2018-08-12T08:05:31.093Z,54.13
2018-08-12T08:08:00.066Z,54.34
2018-08-12T08:10:29.025Z,53.79
2018-08-12T08:12:57.912Z,53.76
2018-08-12T08:15:26.944Z,52.66
2018-08-12T08:17:55.856Z,52.06
2018-08-12T08:20:24.757Z,52.42
2018-08-12T08:22:53.668Z,52.05
2018-08-12T08:25:22.712Z,52.37
2018-08-12T08:27:52.616Z,51.74
2018-08-12T08:30:21.514Z,51.33
2018-08-12T08:32:50.429Z,50.80
2018-08-12T08:35:19.347Z,49.79
2018-08-12T08:37:48.242Z,50.15
2018-08-12T08:40:17.701Z,49.70
2018-08-12T08:42:46.894Z,49.67
2018-08-12T08:45:19.090Z,49.26
2018-08-12T08:47:49.100Z,48.15
2018-08-12T08:50:19.297Z,48.37
2018-08-12T08:52:48.182Z,47.88
2018-08-12T08:55:17.397Z,47.56
2018-08-12T08:57:46.834Z,47.23
2018-08-12T09:00:18.478Z,46.69
2018-08-12T09:02:49.815Z,46.95
2018-08-12T09:05:19.095Z,46.50
2018-08-12T09:07:48.231Z,45.21
2018-08-12T09:10:18.149Z,45.23
2018-08-12T09:12:47.125Z,44.86
2018-08-12T09:15:17.719Z,45.15
2018-08-12T09:17:47.123Z,44.46
2018-08-12T09:20:18.275Z,43.52
2018-08-12T09:22:47.199Z,43.56
2018-08-12T09:25:16.279Z,44.18
2018-08-12T09:27:45.184Z,43.02
2018-08-12T09:30:19.036Z,42.53
2018-08-12T09:32:48.083Z,41.92
2018-08-12T09:35:16.966Z,42.11
2018-08-12T09:37:45.881Z,42.22
2018-08-12T09:40:15.974Z,42.41
2018-08-12T09:42:45.873Z,41.45
2018-08-12T09:45:17.442Z,40.98
2018-08-12T09:47:46.485Z,40.28
2018-08-12T09:50:16.449Z,40.98
2018-08-12T09:52:45.906Z,41.53
2018-08-12T09:55:15.263Z,40.42
2018-08-12T09:57:44.153Z,40.29
2018-08-12T10:00:20.446Z,39.76
2018-08-12T10:02:50.377Z,40.03
2018-08-12T10:05:19.561Z,40.78
2018-08-12T10:07:48.457Z,41.05
2018-08-12T10:10:17.748Z,41.64
2018-08-12T10:12:46.941Z,40.27
2018-08-12T10:15:16.363Z,42.14
2018-08-12T10:17:47.289Z,42.38
2018-08-12T10:20:16.277Z,42.31
2018-08-12T10:22:45.222Z,42.34
2018-08-12T10:25:14.119Z,42.63
2018-08-12T10:27:43.103Z,44.00
2018-08-12T10:30:13.213Z,44.15
2018-08-12T10:32:42.122Z,44.72
2018-08-12T10:35:12.457Z,44.74
2018-08-12T10:37:41.845Z,44.93
2018-08-12T10:40:12.932Z,44.36
2018-08-12T10:42:42.057Z,45.21
2018-08-12T10:45:11.757Z,44.54
2018-08-12T10:47:40.891Z,43.72
2018-08-12T10:50:13.016Z,44.43
2018-08-12T10:52:43.112Z,44.82
2018-08-12T10:55:12.898Z,45.00
2018-08-12T10:57:41.933Z,45.28
2018-08-12T11:00:18.266Z,44.83
2018-08-12T11:02:47.759Z,44.71
2018-08-12T11:05:17.086Z,44.00
2018-08-12T11:07:47.983Z,44.08
2018-08-12T11:10:16.935Z,44.59
2018-08-12T11:12:45.916Z,43.80
2018-08-12T11:15:14.865Z,42.83
2018-08-12T11:17:43.764Z,43.38
2018-08-12T11:20:12.689Z,43.31
2018-08-12T11:22:41.599Z,43.27
2018-08-12T11:25:11.623Z,43.54
2018-08-12T11:27:40.580Z,43.06
2018-08-12T11:30:13.457Z,42.13
2018-08-12T11:32:42.454Z,42.21
2018-08-12T11:35:12.837Z,42.42
2018-08-12T11:37:43.290Z,42.59
2018-08-12T11:40:13.179Z,42.60
2018-08-12T11:42:42.152Z,42.35
2018-08-12T11:45:15.030Z,41.82
2018-08-12T11:47:44.374Z,40.62
2018-08-12T11:50:13.821Z,40.74
2018-08-12T11:52:43.552Z,40.75
2018-08-12T11:55:13.648Z,40.95
2018-08-12T11:57:42.527Z,40.85
2018-08-12T12:00:15.039Z,40.42
2018-08-12T12:02:44.823Z,40.42
2018-08-12T12:05:14.100Z,40.75
2018-08-12T12:07:43.133Z,39.75
2018-08-12T12:10:14.460Z,39.59
2018-08-12T12:12:44.443Z,38.83
2018-08-12T12:15:14.294Z,38.92
2018-08-12T12:17:43.728Z,39.86
2018-08-12T12:20:13.314Z,38.81
2018-08-12T12:22:42.887Z,38.62
2018-08-12T12:25:12.964Z,38.65
2018-08-12T12:27:41.825Z,39.34
2018-08-12T12:30:13.530Z,38.04
2018-08-12T12:32:43.171Z,38.22
2018-08-12T12:35:12.124Z,37.69
2018-08-12T12:37:41.415Z,38.77
2018-08-12T12:40:12.219Z,37.89
2018-08-12T12:42:41.245Z,38.60
2018-08-12T12:45:11.481Z,38.46
2018-08-12T12:47:40.622Z,37.29
2018-08-12T12:50:15.046Z,37.44
2018-08-12T12:52:43.964Z,37.18
2018-08-12T12:55:12.900Z,36.99
2018-08-12T12:57:41.824Z,36.99
2018-08-12T13:00:12.539Z,36.71
2018-08-12T13:02:41.416Z,36.70
2018-08-12T13:05:12.105Z,37.40
2018-08-12T13:07:41.084Z,36.26
2018-08-12T13:10:10.570Z,36.24
2018-08-12T13:12:40.137Z,37.03
2018-08-12T13:15:10.177Z,36.45
2018-08-12T13:17:39.472Z,35.57
2018-08-12T13:20:10.426Z,35.80
2018-08-12T13:22:39.316Z,35.88
2018-08-12T13:25:11.699Z,36.10
2018-08-12T13:27:42.066Z,36.81
2018-08-12T13:30:11.921Z,35.69
2018-08-12T13:32:41.910Z,35.61
2018-08-12T13:35:10.808Z,36.15
2018-08-12T13:37:39.697Z,36.30
2018-08-12T13:40:10.700Z,35.83
2018-08-12T13:42:40.231Z,35.23
2018-08-12T13:45:11.164Z,35.86
2018-08-12T13:47:41.281Z,36.06
2018-08-12T13:50:13.365Z,35.87
2018-08-12T13:52:42.305Z,35.85
2018-08-12T13:55:11.263Z,35.51
2018-08-12T13:57:40.220Z,35.20
2018-08-12T14:00:11.167Z,34.89
2018-08-12T14:02:41.606Z,35.45
2018-08-12T14:05:11.282Z,34.94
2018-08-12T14:07:40.233Z,34.63
2018-08-12T14:10:10.206Z,35.28
2018-08-12T14:12:39.384Z,34.13
2018-08-12T14:15:11.075Z,34.32
2018-08-12T14:17:40.739Z,33.85
2018-08-12T14:20:10.721Z,33.90
2018-08-12T14:22:39.823Z,33.82
2018-08-12T14:25:09.235Z,34.17
2018-08-12T14:27:38.572Z,33.87
2018-08-12T14:30:11.058Z,33.33
2018-08-12T14:32:39.962Z,33.95
2018-08-12T14:35:09.135Z,33.68
2018-08-12T14:37:38.702Z,33.71
2018-08-12T14:40:08.699Z,33.25
2018-08-12T14:42:37.682Z,33.45
2018-08-12T14:45:07.805Z,33.84
2018-08-12T14:47:37.074Z,34.02
2018-08-12T14:50:07.679Z,33.25
2018-08-12T14:52:36.618Z,33.16
2018-08-12T14:55:06.625Z,32.88
2018-08-12T14:57:35.652Z,32.42
2018-08-12T15:00:05.278Z,32.65
2018-08-12T15:02:34.154Z,33.28
2018-08-12T15:05:03.207Z,33.10
2018-08-12T15:07:32.106Z,33.60
2018-08-12T15:10:01.042Z,33.10
2018-08-12T15:12:29.953Z,33.03
2018-08-12T15:14:58.865Z,33.12
2018-08-12T15:17:27.833Z,32.87
2018-08-12T15:19:56.854Z,32.75
2018-08-12T15:22:25.841Z,33.05
2018-08-12T15:24:54.720Z,33.12
2018-08-12T15:27:23.651Z,34.51
2018-08-12T15:29:53.758Z,33.98
2018-08-12T15:32:22.647Z,34.24
2018-08-12T15:34:51.558Z,34.00
2018-08-12T15:37:20.528Z,34.01
2018-08-12T15:39:49.502Z,34.81
2018-08-12T15:42:18.541Z,34.93
2018-08-12T15:44:47.445Z,35.54
2018-08-12T15:47:16.540Z,35.79
2018-08-12T15:49:45.963Z,33.39
2018-08-12T15:52:14.859Z,33.94
2018-08-12T15:54:44.019Z,33.87
2018-08-12T15:57:13.389Z,33.00
2018-08-12T15:59:42.297Z,34.92
2018-08-12T16:02:11.192Z,33.28
2018-08-12T16:04:40.106Z,33.59
2018-08-12T16:07:10.032Z,34.11
2018-08-12T16:09:38.924Z,33.08
2018-08-12T16:12:08.886Z,32.25
2018-08-12T16:14:37.841Z,32.23
2018-08-12T16:17:07.056Z,32.83
2018-08-12T16:19:35.987Z,34.20
2018-08-12T16:22:04.965Z,32.17
2018-08-12T16:24:33.862Z,32.00
2018-08-12T16:27:02.805Z,33.04
2018-08-12T16:29:31.701Z,33.58
2018-08-12T16:32:00.619Z,33.06
2018-08-12T16:34:29.521Z,32.24
2018-08-12T16:36:58.447Z,32.44
2018-08-12T16:39:27.472Z,32.29
2018-08-12T16:41:56.338Z,32.35
2018-08-12T16:44:25.295Z,31.90
2018-08-12T16:46:54.173Z,32.66
2018-08-12T16:49:23.279Z,31.82
2018-08-12T16:51:52.124Z,32.36
2018-08-12T16:54:20.974Z,32.02
2018-08-12T16:56:50.015Z,32.50
2018-08-12T16:59:18.890Z,32.03
2018-08-12T17:01:47.865Z,32.09
2018-08-12T17:04:16.922Z,31.96
2018-08-12T17:06:45.734Z,32.79
2018-08-12T17:09:14.568Z,31.67
2018-08-12T17:11:43.698Z,32.05
2018-08-12T17:14:12.669Z,32.00
2018-08-12T17:16:41.686Z,31.93
2018-08-12T17:19:10.674Z,31.71
2018-08-12T17:21:39.684Z,32.58
2018-08-12T17:24:08.707Z,33.63
2018-08-12T17:26:37.767Z,31.77
2018-08-12T17:29:06.891Z,31.91
2018-08-12T17:31:35.955Z,32.46
2018-08-12T17:34:04.915Z,31.84
2018-08-12T17:36:33.871Z,32.02
2018-08-12T17:39:02.746Z,32.10
2018-08-12T17:41:31.675Z,31.98
2018-08-12T17:44:01.909Z,32.61
2018-08-12T17:46:30.798Z,32.99
2018-08-12T17:48:59.721Z,33.09
2018-08-12T17:51:28.645Z,33.07
2018-08-12T17:53:59.749Z,33.39
2018-08-12T17:56:29.114Z,32.69
2018-08-12T17:58:58.357Z,32.83
2018-08-12T18:01:27.262Z,33.45
2018-08-12T18:03:56.167Z,33.30
2018-08-12T18:06:25.061Z,33.47
2018-08-12T18:08:53.934Z,33.38
2018-08-12T18:11:22.892Z,33.61
2018-08-12T18:13:51.771Z,34.10
2018-08-12T18:16:20.664Z,34.42
2018-08-12T18:18:49.561Z,34.34
2018-08-12T18:21:18.422Z,34.13
2018-08-12T18:23:47.330Z,34.17
2018-08-12T18:26:17.352Z,34.98
2018-08-12T18:28:46.252Z,35.19
2018-08-12T18:31:15.126Z,35.11
2018-08-12T18:33:44.072Z,35.52
2018-08-12T18:36:12.927Z,34.84
2018-08-12T18:38:41.876Z,34.95
2018-08-12T18:41:10.783Z,35.25
2018-08-12T18:43:39.627Z,35.41
2018-08-12T18:46:08.537Z,34.62
2018-08-12T18:48:37.460Z,35.78
2018-08-12T18:51:06.424Z,35.61
2018-08-12T18:53:35.417Z,36.45
2018-08-12T18:56:04.344Z,36.67
2018-08-12T18:58:33.219Z,36.33
2018-08-12T19:01:02.112Z,36.82
2018-08-12T19:03:31.045Z,36.35
2018-08-12T19:05:59.955Z,36.55
2018-08-12T19:08:28.909Z,37.19
2018-08-12T19:10:58.812Z,36.74
2018-08-12T19:13:27.696Z,37.22
2018-08-12T19:15:56.623Z,37.54
2018-08-12T19:18:25.496Z,37.54
2018-08-12T19:20:54.391Z,36.81
2018-08-12T19:23:23.377Z,36.96
2018-08-12T19:25:52.287Z,37.06
2018-08-12T19:28:21.174Z,37.30
2018-08-12T19:30:50.089Z,37.79
2018-08-12T19:33:18.993Z,38.37
2018-08-12T19:35:47.866Z,38.46
2018-08-12T19:38:16.825Z,39.06
2018-08-12T19:40:45.725Z,39.64
2018-08-12T19:43:14.625Z,40.41
2018-08-12T19:45:43.516Z,41.13
2018-08-12T19:48:12.454Z,42.09
2018-08-12T19:50:41.388Z,42.38
2018-08-12T19:53:10.603Z,41.94
2018-08-12T19:55:39.480Z,42.12
2018-08-12T19:58:08.369Z,42.46
2018-08-12T20:00:37.369Z,43.92
2018-08-12T20:03:06.733Z,44.22
2018-08-12T20:05:35.630Z,44.78
2018-08-12T20:08:04.528Z,44.52
2018-08-12T20:10:33.463Z,44.84
2018-08-12T20:13:02.350Z,43.26
2018-08-12T20:15:31.217Z,44.56
2018-08-12T20:18:00.146Z,44.14
2018-08-12T20:20:29.033Z,43.89
2018-08-12T20:22:57.983Z,44.69
2018-08-12T20:25:26.888Z,46.00
2018-08-12T20:27:55.810Z,44.43
2018-08-12T20:30:24.682Z,44.49
2018-08-12T20:32:53.581Z,44.12
2018-08-12T20:35:22.476Z,44.77
2018-08-12T20:37:51.390Z,44.00
2018-08-12T20:40:20.289Z,44.72
2018-08-12T20:42:49.214Z,44.04
2018-08-12T20:45:18.056Z,44.79
2018-08-12T20:47:46.944Z,44.13
2018-08-12T20:50:15.907Z,44.05
2018-08-12T20:52:44.769Z,43.92
2018-08-12T20:55:13.645Z,44.29
2018-08-12T20:57:42.591Z,45.36
2018-08-12T21:00:11.585Z,44.08
2018-08-12T21:02:40.499Z,44.56
2018-08-12T21:05:09.403Z,45.18
2018-08-12T21:07:40.397Z,45.47
2018-08-12T21:10:09.350Z,45.66
2018-08-12T21:12:38.252Z,46.67
2018-08-12T21:15:07.144Z,46.80
2018-08-12T21:17:36.136Z,46.42
2018-08-12T21:20:05.777Z,47.49
2018-08-12T21:22:34.648Z,48.42
2018-08-12T21:25:03.564Z,48.87
2018-08-12T21:27:33.523Z,48.68
2018-08-12T21:30:02.470Z,48.57
2018-08-12T21:32:31.373Z,48.34
2018-08-12T21:35:00.305Z,48.66
2018-08-12T21:37:29.230Z,48.61
2018-08-12T21:39:58.135Z,48.22
2018-08-12T21:42:27.100Z,48.56
2018-08-12T21:44:55.998Z,49.27
2018-08-12T21:47:24.905Z,48.54
2018-08-12T21:49:53.828Z,50.04
2018-08-12T21:52:22.697Z,49.69
2018-08-12T21:54:51.598Z,50.49
2018-08-12T21:57:20.496Z,50.46
2018-08-12T21:59:49.439Z,51.30
2018-08-12T22:02:18.290Z,50.53
2018-08-12T22:04:47.203Z,51.45
2018-08-12T22:07:17.126Z,50.90
2018-08-12T22:09:46.056Z,52.01
2018-08-12T22:12:14.965Z,51.79
2018-08-12T22:14:43.877Z,52.08
2018-08-12T22:17:12.798Z,51.76
2018-08-12T22:19:41.880Z,51.85
2018-08-12T22:22:10.798Z,52.06
2018-08-12T22:24:39.687Z,52.11
2018-08-12T22:27:08.631Z,52.09
2018-08-12T22:29:37.511Z,52.15
2018-08-12T22:32:06.653Z,51.96
2018-08-12T22:34:35.912Z,52.01
2018-08-12T22:37:05.011Z,52.53
2018-08-12T22:39:33.989Z,52.24
2018-08-12T22:42:02.878Z,52.57
2018-08-12T22:44:31.821Z,51.49
2018-08-12T22:47:00.707Z,51.91
2018-08-12T22:49:29.609Z,52.14
2018-08-12T22:51:58.494Z,52.39
2018-08-12T22:54:27.421Z,51.58
2018-08-12T22:56:56.327Z,52.90
2018-08-12T22:59:25.326Z,53.42
2018-08-12T23:01:54.226Z,53.67
2018-08-12T23:04:23.149Z,53.72
2018-08-12T23:06:52.033Z,53.53
2018-08-12T23:09:20.932Z,52.65
2018-08-12T23:11:49.813Z,52.19
2018-08-12T23:14:18.685Z,53.50
2018-08-12T23:16:59.025Z,52.56
2018-08-12T23:19:28.138Z,52.78
2018-08-12T23:21:57.072Z,52.35
2018-08-12T23:24:25.976Z,52.34
2018-08-12T23:26:54.932Z,52.19
2018-08-12T23:29:23.804Z,52.22
2018-08-12T23:31:52.727Z,51.33
2018-08-12T23:34:21.624Z,51.70
2018-08-12T23:36:50.538Z,49.83
2018-08-12T23:39:19.426Z,50.07
2018-08-12T23:41:48.321Z,50.78
2018-08-12T23:44:17.229Z,49.90
2018-08-12T23:46:46.108Z,50.17
2018-08-12T23:49:15.033Z,49.32
2018-08-12T23:51:43.925Z,49.58
2018-08-12T23:54:12.836Z,49.31
2018-08-12T23:56:41.716Z,49.49
2018-08-12T23:59:10.637Z,48.92
